< < Back
Terminal Aerodrome Forecast


Current Version              Previous Versions:   1  2  3  4  5  6  7  8  9  

Terminal Aerodrome Forecast

149
FTUS44 KBMX 301700
TAFANB
TAF
KANB 301722Z 3018/3118 03006KT P6SM SCT050=

Latest METAR

680
SAUS70 KWBC 302300 RRB
MTRANB
METAR KANB 302253Z AUTO 35009KT 10SM CLR 28/13 A3003 RMK AO2 SLP164
T02780128


USA.gov is the U.S. government's official web portal to all federal, state and local government web resources and services.